TimeEST,TemperatureF,Dew PointF,Humidity,Sea Level PressureIn,VisibilityMPH,Wind Direction,Wind SpeedMPH,Gust SpeedMPH,PrecipitationIn,Events,Conditions,WindDirDegrees,DateUTC
12:15 AM,39.2,35.6,87,29.95,10.0,Calm,Calm,-,N/A,,Overcast,0,2012-12-07 05:15:00
12:35 AM,41.0,35.6,81,29.94,10.0,Calm,Calm,-,N/A,,Overcast,0,2012-12-07 05:35:00
12:55 AM,41.0,35.6,81,29.95,10.0,WSW,3.5,-,N/A,,Mostly Cloudy,250,2012-12-07 05:55:00
1:15 AM,37.4,33.8,87,29.96,10.0,West,4.6,-,N/A,,Scattered Clouds,280,2012-12-07 06:15:00
1:35 AM,35.6,33.8,93,29.95,10.0,Calm,Calm,-,N/A,,Clear,0,2012-12-07 06:35:00
1:55 AM,35.6,33.8,93,29.95,10.0,Calm,Calm,-,N/A,,Clear,0,2012-12-07 06:55:00
2:15 AM,37.4,33.8,87,29.95,10.0,Calm,Calm,-,N/A,,Mostly Cloudy,0,2012-12-07 07:15:00
2:35 AM,37.4,35.6,93,29.95,7.0,Calm,Calm,-,N/A,,Overcast,0,2012-12-07 07:35:00
2:55 AM,37.4,35.6,93,29.95,7.0,Calm,Calm,-,N/A,,Overcast,0,2012-12-07 07:55:00
3:15 AM,37.4,35.6,93,29.95,7.0,Calm,Calm,-,N/A,,Overcast,0,2012-12-07 08:15:00
3:35 AM,37.4,35.6,93,29.95,10.0,Calm,Calm,-,N/A,,Overcast,0,2012-12-07 08:35:00
3:55 AM,37.4,35.6,93,29.93,10.0,Calm,Calm,-,N/A,,Overcast,0,2012-12-07 08:55:00
4:15 AM,37.4,35.6,93,29.94,10.0,Calm,Calm,-,N/A,,Mostly Cloudy,0,2012-12-07 09:15:00
4:35 AM,39.2,35.6,87,29.93,10.0,Calm,Calm,-,N/A,,Mostly Cloudy,0,2012-12-07 09:35:00
4:55 AM,39.2,35.6,87,29.93,10.0,Calm,Calm,-,N/A,,Overcast,0,2012-12-07 09:55:00
5:15 AM,37.4,35.6,93,29.93,10.0,Calm,Calm,-,N/A,,Overcast,0,2012-12-07 10:15:00
5:35 AM,37.4,35.6,93,29.94,7.0,Calm,Calm,-,N/A,,Overcast,0,2012-12-07 10:35:00
5:55 AM,37.4,35.6,93,29.94,10.0,Calm,Calm,-,N/A,,Overcast,0,2012-12-07 10:55:00
6:15 AM,39.2,35.6,87,29.94,10.0,Calm,Calm,-,N/A,,Overcast,0,2012-12-07 11:15:00
6:35 AM,39.2,37.4,93,29.95,10.0,Calm,Calm,-,N/A,,Overcast,0,2012-12-07 11:35:00
6:55 AM,41.0,37.4,87,29.95,10.0,Calm,Calm,-,N/A,,Overcast,0,2012-12-07 11:55:00
7:15 AM,41.0,37.4,87,29.95,7.0,Calm,Calm,-,N/A,Rain,Light Rain,0,2012-12-07 12:15:00
7:35 AM,41.0,37.4,87,29.95,7.0,Calm,Calm,-,N/A,Rain,Light Rain,0,2012-12-07 12:35:00
7:55 AM,41.0,37.4,87,29.96,7.0,Calm,Calm,-,N/A,Rain,Light Rain,0,2012-12-07 12:55:00
8:15 AM,41.0,37.4,87,29.96,4.0,Calm,Calm,-,N/A,Rain,Light Rain,0,2012-12-07 13:15:00
8:35 AM,39.2,37.4,93,29.95,4.0,Calm,Calm,-,N/A,Rain,Light Rain,0,2012-12-07 13:35:00
8:55 AM,41.0,39.2,93,29.96,3.0,Calm,Calm,-,N/A,,Overcast,0,2012-12-07 13:55:00
9:15 AM,41.0,39.2,93,29.96,5.0,Calm,Calm,-,N/A,,Light Drizzle,0,2012-12-07 14:15:00
9:35 AM,41.0,39.2,93,29.96,5.0,Calm,Calm,-,N/A,,Drizzle,0,2012-12-07 14:35:00
9:55 AM,41.0,39.2,93,29.97,5.0,Calm,Calm,-,N/A,Rain,Light Rain,0,2012-12-07 14:55:00
10:15 AM,42.8,39.2,87,29.96,5.0,Calm,Calm,-,N/A,,Light Drizzle,0,2012-12-07 15:15:00
10:35 AM,42.8,41.0,93,29.96,5.0,Calm,Calm,-,N/A,Rain,Light Rain,0,2012-12-07 15:35:00
10:55 AM,42.8,41.0,93,29.96,5.0,Calm,Calm,-,N/A,,Drizzle,0,2012-12-07 15:55:00
11:15 AM,42.8,41.0,93,29.96,5.0,Calm,Calm,-,N/A,Rain,Light Rain,0,2012-12-07 16:15:00
11:35 AM,42.8,41.0,93,29.95,5.0,Calm,Calm,-,N/A,,Overcast,0,2012-12-07 16:35:00
11:55 AM,44.6,41.0,87,29.94,5.0,Calm,Calm,-,N/A,,Overcast,0,2012-12-07 16:55:00
12:15 PM,44.6,42.8,93,29.93,5.0,Calm,Calm,-,N/A,,Overcast,0,2012-12-07 17:15:00
12:35 PM,46.4,42.8,87,29.92,7.0,Calm,Calm,-,N/A,,Overcast,0,2012-12-07 17:35:00
1:15 PM,46.4,41.0,81,29.92,7.0,Calm,Calm,-,N/A,,Overcast,0,2012-12-07 18:15:00
1:35 PM,46.4,41.0,81,29.91,7.0,SE,3.5,-,N/A,,Overcast,140,2012-12-07 18:35:00
2:15 PM,46.4,41.0,81,29.90,7.0,SSW,3.5,-,N/A,,Overcast,200,2012-12-07 19:15:00
2:35 PM,44.6,41.0,87,29.90,5.0,Calm,Calm,-,N/A,Rain,Light Rain,0,2012-12-07 19:35:00
2:55 PM,44.6,41.0,87,29.90,4.0,Calm,Calm,-,N/A,Rain,Light Rain,0,2012-12-07 19:55:00
3:15 PM,44.6,42.8,93,29.90,3.0,Calm,Calm,-,N/A,Rain,Light Rain,0,2012-12-07 20:15:00
3:35 PM,44.6,42.8,93,29.90,3.0,Calm,Calm,-,N/A,Rain,Light Rain,0,2012-12-07 20:35:00
3:55 PM,44.6,42.8,93,29.89,3.0,Calm,Calm,-,0.01,Rain,Rain,0,2012-12-07 20:55:00
4:15 PM,44.6,42.8,93,29.90,3.0,Calm,Calm,-,N/A,Rain,Rain,0,2012-12-07 21:15:00
4:35 PM,44.6,42.8,93,29.90,2.5,Calm,Calm,-,N/A,Rain,Light Rain,0,2012-12-07 21:35:00
4:55 PM,44.6,42.8,93,29.90,1.8,Calm,Calm,-,N/A,,Drizzle,0,2012-12-07 21:55:00
5:15 PM,42.8,42.8,100,29.90,1.5,NNE,3.5,-,N/A,Rain,Light Rain,30,2012-12-07 22:15:00
5:35 PM,42.8,42.8,100,29.89,1.8,NNE,3.5,-,N/A,Rain,Light Rain,30,2012-12-07 22:35:00
5:55 PM,42.8,42.8,100,29.89,2.0,Calm,Calm,-,0.01,Rain,Light Rain,0,2012-12-07 22:55:00
6:15 PM,42.8,42.8,100,29.89,2.0,ENE,3.5,-,N/A,Rain,Rain,60,2012-12-07 23:15:00
6:35 PM,42.8,42.8,100,29.89,2.0,ENE,3.5,-,N/A,Rain,Light Rain,70,2012-12-07 23:35:00
6:55 PM,42.8,42.8,100,29.88,2.0,NE,3.5,-,N/A,Rain,Rain,40,2012-12-07 23:55:00
7:15 PM,42.8,42.8,100,29.88,1.8,ENE,3.5,-,0.01,Rain,Light Rain,60,2012-12-08 00:15:00
7:35 PM,42.8,42.8,100,29.89,1.8,NE,3.5,-,0.01,,Light Drizzle,40,2012-12-08 00:35:00
7:55 PM,42.8,42.8,100,29.88,2.0,NE,4.6,-,0.01,Rain,Rain,50,2012-12-08 00:55:00
8:15 PM,42.8,42.8,100,29.88,1.8,ENE,3.5,-,N/A,,Light Drizzle,70,2012-12-08 01:15:00
8:35 PM,42.8,42.8,100,29.88,1.8,East,5.8,-,N/A,Rain,Light Rain,80,2012-12-08 01:35:00
8:55 PM,42.8,42.8,100,29.87,2.0,ENE,8.1,-,N/A,Rain,Light Rain,70,2012-12-08 01:55:00
9:15 PM,42.8,42.8,100,29.87,2.0,ENE,5.8,-,N/A,,Overcast,70,2012-12-08 02:15:00
9:35 PM,42.8,42.8,100,29.86,2.5,East,5.8,-,N/A,,Overcast,90,2012-12-08 02:35:00
9:55 PM,42.8,42.8,100,29.86,2.5,ENE,4.6,-,N/A,,Light Drizzle,70,2012-12-08 02:55:00
10:15 PM,42.8,42.8,100,29.87,2.5,NE,4.6,-,N/A,,Overcast,50,2012-12-08 03:15:00
10:35 PM,42.8,42.8,100,29.86,3.0,ENE,5.8,-,N/A,,Overcast,60,2012-12-08 03:35:00
10:55 PM,42.8,42.8,100,29.86,3.0,North,3.5,-,N/A,,Overcast,10,2012-12-08 03:55:00
11:15 PM,42.8,42.8,100,29.85,2.5,NE,4.6,-,0.03,Rain,Rain,40,2012-12-08 04:15:00
11:35 PM,42.8,42.8,100,29.85,2.5,Calm,Calm,-,0.04,Rain,Light Rain,0,2012-12-08 04:35:00
11:55 PM,42.8,42.8,100,29.85,2.0,Calm,Calm,-,0.04,Rain,Rain,0,2012-12-08 04:55:00